sensor_id;sensor_type;location;lat;lon;timestamp;temperature;humidity
22666;DHT22;11499;49.486;11.104;2023-04-25T00:00:07;8.90;99.90
22666;DHT22;11499;49.486;11.104;2023-04-25T00:02:34;8.90;99.90
22666;DHT22;11499;49.486;11.104;2023-04-25T00:05:01;9.10;99.90
22666;DHT22;11499;49.486;11.104;2023-04-25T00:07:27;8.90;99.90
22666;DHT22;11499;49.486;11.104;2023-04-25T00:12:26;8.90;99.90
22666;DHT22;11499;49.486;11.104;2023-04-25T00:14:54;9.00;99.90
22666;DHT22;11499;49.486;11.104;2023-04-25T00:17:22;9.00;99.90
22666;DHT22;11499;49.486;11.104;2023-04-25T00:19:50;9.00;99.90
22666;DHT22;11499;49.486;11.104;2023-04-25T00:22:16;9.00;99.90
22666;DHT22;11499;49.486;11.104;2023-04-25T00:24:41;9.00;99.90
22666;DHT22;11499;49.486;11.104;2023-04-25T00:27:07;9.00;99.90
22666;DHT22;11499;49.486;11.104;2023-04-25T00:29:33;9.00;99.90
22666;DHT22;11499;49.486;11.104;2023-04-25T00:31:58;9.00;99.90
22666;DHT22;11499;49.486;11.104;2023-04-25T00:34:24;9.00;99.90
22666;DHT22;11499;49.486;11.104;2023-04-25T00:39:25;9.10;99.90
22666;DHT22;11499;49.486;11.104;2023-04-25T00:41:52;9.10;99.90
22666;DHT22;11499;49.486;11.104;2023-04-25T00:44:20;9.10;99.90
22666;DHT22;11499;49.486;11.104;2023-04-25T00:46:47;9.20;99.90
22666;DHT22;11499;49.486;11.104;2023-04-25T00:49:12;9.20;99.90
22666;DHT22;11499;49.486;11.104;2023-04-25T00:51:41;9.30;99.90
22666;DHT22;11499;49.486;11.104;2023-04-25T00:54:07;9.30;99.90
22666;DHT22;11499;49.486;11.104;2023-04-25T00:56:32;9.40;99.90
22666;DHT22;11499;49.486;11.104;2023-04-25T00:58:58;9.40;99.90
22666;DHT22;11499;49.486;11.104;2023-04-25T01:01:24;9.40;99.90
22666;DHT22;11499;49.486;11.104;2023-04-25T01:03:49;9.40;99.90
22666;DHT22;11499;49.486;11.104;2023-04-25T01:08:54;9.40;99.90
22666;DHT22;11499;49.486;11.104;2023-04-25T01:11:20;9.40;99.90
22666;DHT22;11499;49.486;11.104;2023-04-25T01:13:46;9.40;99.90
22666;DHT22;11499;49.486;11.104;2023-04-25T01:16:11;9.50;99.90
22666;DHT22;11499;49.486;11.104;2023-04-25T01:18:38;9.40;99.90
22666;DHT22;11499;49.486;11.104;2023-04-25T01:21:12;9.40;99.90
22666;DHT22;11499;49.486;11.104;2023-04-25T01:23:41;9.40;99.90
22666;DHT22;11499;49.486;11.104;2023-04-25T01:26:10;9.40;99.90
22666;DHT22;11499;49.486;11.104;2023-04-25T01:28:36;9.40;99.90
22666;DHT22;11499;49.486;11.104;2023-04-25T01:31:02;9.40;99.90
22666;DHT22;11499;49.486;11.104;2023-04-25T01:35:39;9.30;99.90
22666;DHT22;11499;49.486;11.104;2023-04-25T01:38:05;9.30;99.90
22666;DHT22;11499;49.486;11.104;2023-04-25T01:40:31;9.30;99.90
22666;DHT22;11499;49.486;11.104;2023-04-25T01:42:58;9.20;99.90
22666;DHT22;11499;49.486;11.104;2023-04-25T01:45:24;9.20;99.90
22666;DHT22;11499;49.486;11.104;2023-04-25T01:47:49;9.10;99.90
22666;DHT22;11499;49.486;11.104;2023-04-25T01:50:17;9.10;99.90
22666;DHT22;11499;49.486;11.104;2023-04-25T01:52:43;9.10;99.90
22666;DHT22;11499;49.486;11.104;2023-04-25T01:55:09;9.10;99.90
22666;DHT22;11499;49.486;11.104;2023-04-25T01:57:34;9.10;99.90
22666;DHT22;11499;49.486;11.104;2023-04-25T02:00:04;9.10;99.90
22666;DHT22;11499;49.486;11.104;2023-04-25T02:05:11;9.10;99.90
22666;DHT22;11499;49.486;11.104;2023-04-25T02:07:36;9.10;99.90
22666;DHT22;11499;49.486;11.104;2023-04-25T02:10:03;9.10;99.90
22666;DHT22;11499;49.486;11.104;2023-04-25T02:12:28;9.20;99.90
22666;DHT22;11499;49.486;11.104;2023-04-25T02:14:54;9.20;99.90
22666;DHT22;11499;49.486;11.104;2023-04-25T02:17:20;9.30;99.90
22666;DHT22;11499;49.486;11.104;2023-04-25T02:19:47;9.30;99.90
22666;DHT22;11499;49.486;11.104;2023-04-25T02:22:12;9.30;99.90
22666;DHT22;11499;49.486;11.104;2023-04-25T02:24:38;9.30;99.90
22666;DHT22;11499;49.486;11.104;2023-04-25T02:27:03;9.30;99.90
22666;DHT22;11499;49.486;11.104;2023-04-25T02:32:04;9.30;99.90
22666;DHT22;11499;49.486;11.104;2023-04-25T02:34:29;9.20;99.90
22666;DHT22;11499;49.486;11.104;2023-04-25T02:36:55;9.10;99.90
22666;DHT22;11499;49.486;11.104;2023-04-25T02:39:20;9.00;99.90
22666;DHT22;11499;49.486;11.104;2023-04-25T02:41:47;9.00;99.90
22666;DHT22;11499;49.486;11.104;2023-04-25T02:44:13;9.00;99.90
22666;DHT22;11499;49.486;11.104;2023-04-25T02:46:38;9.00;99.90
22666;DHT22;11499;49.486;11.104;2023-04-25T02:49:04;8.90;99.90
22666;DHT22;11499;49.486;11.104;2023-04-25T02:51:30;8.90;99.90
22666;DHT22;11499;49.486;11.104;2023-04-25T02:53:55;8.90;99.90
22666;DHT22;11499;49.486;11.104;2023-04-25T02:59:10;8.80;99.90
22666;DHT22;11499;49.486;11.104;2023-04-25T03:01:35;8.80;99.90
22666;DHT22;11499;49.486;11.104;2023-04-25T03:04:01;8.80;99.90
22666;DHT22;11499;49.486;11.104;2023-04-25T03:06:26;8.80;99.90
22666;DHT22;11499;49.486;11.104;2023-04-25T03:08:52;8.80;99.90
22666;DHT22;11499;49.486;11.104;2023-04-25T03:11:17;8.90;99.90
22666;DHT22;11499;49.486;11.104;2023-04-25T03:13:45;8.90;99.90
22666;DHT22;11499;49.486;11.104;2023-04-25T03:16:10;8.90;99.90
22666;DHT22;11499;49.486;11.104;2023-04-25T03:18:36;8.90;99.90
22666;DHT22;11499;49.486;11.104;2023-04-25T03:21:02;8.90;99.90
22666;DHT22;11499;49.486;11.104;2023-04-25T03:26:08;8.80;99.90
22666;DHT22;11499;49.486;11.104;2023-04-25T03:28:33;8.80;99.90
22666;DHT22;11499;49.486;11.104;2023-04-25T03:30:59;8.90;99.90
22666;DHT22;11499;49.486;11.104;2023-04-25T03:33:25;8.80;99.90
22666;DHT22;11499;49.486;11.104;2023-04-25T03:35:50;8.80;99.90
22666;DHT22;11499;49.486;11.104;2023-04-25T03:38:17;8.70;99.90
22666;DHT22;11499;49.486;11.104;2023-04-25T03:40:42;8.70;99.90
22666;DHT22;11499;49.486;11.104;2023-04-25T03:43:08;8.70;99.90
22666;DHT22;11499;49.486;11.104;2023-04-25T03:45:33;8.70;99.90
22666;DHT22;11499;49.486;11.104;2023-04-25T03:47:59;8.60;99.90
22666;DHT22;11499;49.486;11.104;2023-04-25T03:52:15;8.50;99.90
22666;DHT22;11499;49.486;11.104;2023-04-25T03:54:40;8.40;99.90
22666;DHT22;11499;49.486;11.104;2023-04-25T03:57:06;8.40;99.90
22666;DHT22;11499;49.486;11.104;2023-04-25T03:59:31;8.40;99.90
22666;DHT22;11499;49.486;11.104;2023-04-25T04:01:57;8.50;99.90
22666;DHT22;11499;49.486;11.104;2023-04-25T04:04:22;8.50;99.90
22666;DHT22;11499;49.486;11.104;2023-04-25T04:06:48;8.60;99.90
22666;DHT22;11499;49.486;11.104;2023-04-25T04:09:13;8.70;99.90
22666;DHT22;11499;49.486;11.104;2023-04-25T04:11:39;8.70;99.90
22666;DHT22;11499;49.486;11.104;2023-04-25T04:14:06;8.80;99.90
22666;DHT22;11499;49.486;11.104;2023-04-25T04:19:15;8.80;99.90
22666;DHT22;11499;49.486;11.104;2023-04-25T04:21:40;8.90;99.90
22666;DHT22;11499;49.486;11.104;2023-04-25T04:24:06;8.90;99.90
22666;DHT22;11499;49.486;11.104;2023-04-25T04:26:32;8.80;99.90
22666;DHT22;11499;49.486;11.104;2023-04-25T04:28:58;8.80;99.90
22666;DHT22;11499;49.486;11.104;2023-04-25T04:31:24;8.70;99.90
22666;DHT22;11499;49.486;11.104;2023-04-25T04:33:50;8.50;99.90
22666;DHT22;11499;49.486;11.104;2023-04-25T04:36:16;8.50;99.90
22666;DHT22;11499;49.486;11.104;2023-04-25T04:38:45;8.40;99.90
22666;DHT22;11499;49.486;11.104;2023-04-25T04:41:10;8.40;99.90
22666;DHT22;11499;49.486;11.104;2023-04-25T04:46:15;8.40;99.90
22666;DHT22;11499;49.486;11.104;2023-04-25T04:48:41;8.30;99.90
22666;DHT22;11499;49.486;11.104;2023-04-25T04:51:07;8.30;99.90
22666;DHT22;11499;49.486;11.104;2023-04-25T04:53:33;8.40;99.90
22666;DHT22;11499;49.486;11.104;2023-04-25T04:55:58;8.40;99.90
22666;DHT22;11499;49.486;11.104;2023-04-25T04:58:24;8.50;99.90
22666;DHT22;11499;49.486;11.104;2023-04-25T05:00:49;8.50;99.90
22666;DHT22;11499;49.486;11.104;2023-04-25T05:03:15;8.40;99.90
22666;DHT22;11499;49.486;11.104;2023-04-25T05:05:41;8.50;99.90
22666;DHT22;11499;49.486;11.104;2023-04-25T05:08:07;8.40;99.90
22666;DHT22;11499;49.486;11.104;2023-04-25T05:13:16;8.30;99.90
22666;DHT22;11499;49.486;11.104;2023-04-25T05:15:42;8.30;99.90
22666;DHT22;11499;49.486;11.104;2023-04-25T05:18:08;8.20;99.90
22666;DHT22;11499;49.486;11.104;2023-04-25T05:20:33;8.20;99.90
22666;DHT22;11499;49.486;11.104;2023-04-25T05:22:59;8.10;99.90
22666;DHT22;11499;49.486;11.104;2023-04-25T05:25:25;8.10;99.90
22666;DHT22;11499;49.486;11.104;2023-04-25T05:27:50;8.10;99.90
22666;DHT22;11499;49.486;11.104;2023-04-25T05:30:17;8.10;99.90
22666;DHT22;11499;49.486;11.104;2023-04-25T05:32:43;8.30;99.90
22666;DHT22;11499;49.486;11.104;2023-04-25T05:35:08;8.50;99.90
22666;DHT22;11499;49.486;11.104;2023-04-25T05:39:24;8.40;99.90
22666;DHT22;11499;49.486;11.104;2023-04-25T05:41:50;8.40;99.90
22666;DHT22;11499;49.486;11.104;2023-04-25T05:44:16;8.40;99.90
22666;DHT22;11499;49.486;11.104;2023-04-25T05:46:42;8.30;99.90
22666;DHT22;11499;49.486;11.104;2023-04-25T05:49:07;8.30;99.90
22666;DHT22;11499;49.486;11.104;2023-04-25T05:51:33;8.50;99.90
22666;DHT22;11499;49.486;11.104;2023-04-25T05:53:58;8.40;99.90
22666;DHT22;11499;49.486;11.104;2023-04-25T05:56:24;8.50;99.90
22666;DHT22;11499;49.486;11.104;2023-04-25T05:58:50;8.40;99.90
22666;DHT22;11499;49.486;11.104;2023-04-25T06:01:15;8.50;99.90
22666;DHT22;11499;49.486;11.104;2023-04-25T06:06:43;8.60;99.90
22666;DHT22;11499;49.486;11.104;2023-04-25T06:09:09;8.30;99.90
22666;DHT22;11499;49.486;11.104;2023-04-25T06:11:34;8.20;99.90
22666;DHT22;11499;49.486;11.104;2023-04-25T06:14:00;8.20;99.90
22666;DHT22;11499;49.486;11.104;2023-04-25T06:16:26;8.10;99.90
22666;DHT22;11499;49.486;11.104;2023-04-25T06:18:52;8.10;99.90
22666;DHT22;11499;49.486;11.104;2023-04-25T06:21:17;8.10;99.90
22666;DHT22;11499;49.486;11.104;2023-04-25T06:23:43;8.10;99.90
22666;DHT22;11499;49.486;11.104;2023-04-25T06:26:08;8.30;99.90
22666;DHT22;11499;49.486;11.104;2023-04-25T06:28:33;8.30;99.90
22666;DHT22;11499;49.486;11.104;2023-04-25T06:33:26;8.50;99.90
22666;DHT22;11499;49.486;11.104;2023-04-25T06:35:52;8.50;99.90
22666;DHT22;11499;49.486;11.104;2023-04-25T06:38:18;8.40;99.90
22666;DHT22;11499;49.486;11.104;2023-04-25T06:40:43;8.20;99.90
22666;DHT22;11499;49.486;11.104;2023-04-25T06:43:08;8.20;99.90
22666;DHT22;11499;49.486;11.104;2023-04-25T06:45:34;8.30;99.90
22666;DHT22;11499;49.486;11.104;2023-04-25T06:48:00;8.40;99.90
22666;DHT22;11499;49.486;11.104;2023-04-25T06:50:25;8.60;99.90
22666;DHT22;11499;49.486;11.104;2023-04-25T06:56:13;9.20;99.90
22666;DHT22;11499;49.486;11.104;2023-04-25T06:58:38;9.10;99.90
22666;DHT22;11499;49.486;11.104;2023-04-25T07:02:33;9.10;99.90
22666;DHT22;11499;49.486;11.104;2023-04-25T07:04:58;9.10;99.90
22666;DHT22;11499;49.486;11.104;2023-04-25T07:07:25;9.10;99.90
22666;DHT22;11499;49.486;11.104;2023-04-25T07:09:51;9.20;99.90
22666;DHT22;11499;49.486;11.104;2023-04-25T07:12:16;9.60;99.90
22666;DHT22;11499;49.486;11.104;2023-04-25T07:14:42;9.90;99.90
22666;DHT22;11499;49.486;11.104;2023-04-25T07:17:07;9.60;99.90
22666;DHT22;11499;49.486;11.104;2023-04-25T07:19:33;8.90;99.90
22666;DHT22;11499;49.486;11.104;2023-04-25T07:21:59;8.50;99.90
22666;DHT22;11499;49.486;11.104;2023-04-25T07:24:24;8.20;99.90
22666;DHT22;11499;49.486;11.104;2023-04-25T07:29:10;8.20;99.90
22666;DHT22;11499;49.486;11.104;2023-04-25T07:31:35;7.60;99.90
22666;DHT22;11499;49.486;11.104;2023-04-25T07:34:01;7.50;99.90
22666;DHT22;11499;49.486;11.104;2023-04-25T07:36:26;7.10;99.90
22666;DHT22;11499;49.486;11.104;2023-04-25T07:38:52;6.70;99.90
22666;DHT22;11499;49.486;11.104;2023-04-25T07:41:18;6.30;99.90
22666;DHT22;11499;49.486;11.104;2023-04-25T07:43:43;5.90;99.90
22666;DHT22;11499;49.486;11.104;2023-04-25T07:46:09;6.00;99.90
22666;DHT22;11499;49.486;11.104;2023-04-25T07:48:34;6.00;99.90
22666;DHT22;11499;49.486;11.104;2023-04-25T07:51:00;6.20;99.90
22666;DHT22;11499;49.486;11.104;2023-04-25T07:56:17;6.20;99.90
22666;DHT22;11499;49.486;11.104;2023-04-25T07:58:43;6.70;99.90
22666;DHT22;11499;49.486;11.104;2023-04-25T08:01:08;6.70;99.90
22666;DHT22;11499;49.486;11.104;2023-04-25T08:03:34;6.80;99.90
22666;DHT22;11499;49.486;11.104;2023-04-25T08:06:00;7.00;99.90
22666;DHT22;11499;49.486;11.104;2023-04-25T08:08:25;6.90;99.90
22666;DHT22;11499;49.486;11.104;2023-04-25T08:10:51;6.90;99.90
22666;DHT22;11499;49.486;11.104;2023-04-25T08:13:16;7.30;99.90
22666;DHT22;11499;49.486;11.104;2023-04-25T08:15:42;7.80;99.90
22666;DHT22;11499;49.486;11.104;2023-04-25T08:18:07;7.80;99.90
22666;DHT22;11499;49.486;11.104;2023-04-25T08:20:33;7.80;99.90
22666;DHT22;11499;49.486;11.104;2023-04-25T08:24:51;8.00;99.90
22666;DHT22;11499;49.486;11.104;2023-04-25T08:27:18;8.10;99.90
22666;DHT22;11499;49.486;11.104;2023-04-25T08:29:43;8.70;99.90
22666;DHT22;11499;49.486;11.104;2023-04-25T08:32:09;8.70;99.90
22666;DHT22;11499;49.486;11.104;2023-04-25T08:34:34;8.80;99.90
22666;DHT22;11499;49.486;11.104;2023-04-25T08:37:00;9.30;99.90
22666;DHT22;11499;49.486;11.104;2023-04-25T08:39:25;9.90;99.90
22666;DHT22;11499;49.486;11.104;2023-04-25T08:41:51;10.60;99.90
22666;DHT22;11499;49.486;11.104;2023-04-25T08:44:19;10.80;99.90
22666;DHT22;11499;49.486;11.104;2023-04-25T08:49:55;11.10;99.90
22666;DHT22;11499;49.486;11.104;2023-04-25T08:52:28;11.30;99.90
22666;DHT22;11499;49.486;11.104;2023-04-25T08:54:55;11.10;99.90
22666;DHT22;11499;49.486;11.104;2023-04-25T08:57:22;10.70;99.90
22666;DHT22;11499;49.486;11.104;2023-04-25T08:59:49;11.20;99.90
22666;DHT22;11499;49.486;11.104;2023-04-25T09:02:14;10.00;99.90
22666;DHT22;11499;49.486;11.104;2023-04-25T09:04:43;9.90;99.90
22666;DHT22;11499;49.486;11.104;2023-04-25T09:07:09;10.00;99.90
22666;DHT22;11499;49.486;11.104;2023-04-25T09:09:35;9.70;99.90
22666;DHT22;11499;49.486;11.104;2023-04-25T09:12:01;9.90;99.90
22666;DHT22;11499;49.486;11.104;2023-04-25T09:16:26;10.00;99.90
22666;DHT22;11499;49.486;11.104;2023-04-25T09:18:52;10.20;99.90
22666;DHT22;11499;49.486;11.104;2023-04-25T09:21:22;9.90;99.90
22666;DHT22;11499;49.486;11.104;2023-04-25T09:23:48;9.50;99.90
22666;DHT22;11499;49.486;11.104;2023-04-25T09:26:16;9.30;99.90
22666;DHT22;11499;49.486;11.104;2023-04-25T09:28:42;9.40;99.90
22666;DHT22;11499;49.486;11.104;2023-04-25T09:31:10;9.90;99.90
22666;DHT22;11499;49.486;11.104;2023-04-25T09:33:36;10.10;99.90
22666;DHT22;11499;49.486;11.104;2023-04-25T09:36:09;10.30;99.90
22666;DHT22;11499;49.486;11.104;2023-04-25T09:38:41;10.50;99.90
22666;DHT22;11499;49.486;11.104;2023-04-25T09:43:49;10.20;99.90
22666;DHT22;11499;49.486;11.104;2023-04-25T09:46:15;10.20;99.90
22666;DHT22;11499;49.486;11.104;2023-04-25T09:48:49;10.30;99.90
22666;DHT22;11499;49.486;11.104;2023-04-25T09:51:14;10.30;99.90
22666;DHT22;11499;49.486;11.104;2023-04-25T09:53:45;10.50;99.90
22666;DHT22;11499;49.486;11.104;2023-04-25T09:56:17;10.20;99.90
22666;DHT22;11499;49.486;11.104;2023-04-25T09:58:43;10.40;99.90
22666;DHT22;11499;49.486;11.104;2023-04-25T10:01:10;10.90;99.90
22666;DHT22;11499;49.486;11.104;2023-04-25T10:03:37;11.40;99.90
22666;DHT22;11499;49.486;11.104;2023-04-25T10:06:19;11.60;99.80
22666;DHT22;11499;49.486;11.104;2023-04-25T10:10:15;11.70;96.90
22666;DHT22;11499;49.486;11.104;2023-04-25T10:12:41;11.70;96.30
22666;DHT22;11499;49.486;11.104;2023-04-25T10:15:09;11.30;96.20
22666;DHT22;11499;49.486;11.104;2023-04-25T10:17:35;11.30;95.70
22666;DHT22;11499;49.486;11.104;2023-04-25T10:20:02;11.00;94.10
22666;DHT22;11499;49.486;11.104;2023-04-25T10:22:36;11.20;94.00
22666;DHT22;11499;49.486;11.104;2023-04-25T10:25:03;11.60;92.00
22666;DHT22;11499;49.486;11.104;2023-04-25T10:27:30;11.70;87.20
22666;DHT22;11499;49.486;11.104;2023-04-25T10:30:06;11.90;88.20
22666;DHT22;11499;49.486;11.104;2023-04-25T10:32:35;12.50;86.10
22666;DHT22;11499;49.486;11.104;2023-04-25T10:36:39;13.00;80.80
22666;DHT22;11499;49.486;11.104;2023-04-25T10:39:05;13.00;79.40
22666;DHT22;11499;49.486;11.104;2023-04-25T10:42:03;12.50;80.10
22666;DHT22;11499;49.486;11.104;2023-04-25T10:44:30;12.20;81.80
22666;DHT22;11499;49.486;11.104;2023-04-25T10:46:56;12.00;80.20
22666;DHT22;11499;49.486;11.104;2023-04-25T10:49:34;11.70;82.70
22666;DHT22;11499;49.486;11.104;2023-04-25T10:54:49;12.30;80.40
22666;DHT22;11499;49.486;11.104;2023-04-25T11:02:51;12.50;81.10
22666;DHT22;11499;49.486;11.104;2023-04-25T11:05:29;12.70;79.40
22666;DHT22;11499;49.486;11.104;2023-04-25T11:07:55;13.00;77.80
22666;DHT22;11499;49.486;11.104;2023-04-25T11:10:29;13.00;79.50
22666;DHT22;11499;49.486;11.104;2023-04-25T11:12:55;13.00;77.20
22666;DHT22;11499;49.486;11.104;2023-04-25T11:15:21;12.90;77.70
22666;DHT22;11499;49.486;11.104;2023-04-25T11:17:46;13.20;78.30
22666;DHT22;11499;49.486;11.104;2023-04-25T11:20:13;12.80;76.90
22666;DHT22;11499;49.486;11.104;2023-04-25T11:22:39;13.00;75.40
22666;DHT22;11499;49.486;11.104;2023-04-25T11:25:09;12.50;75.10
22666;DHT22;11499;49.486;11.104;2023-04-25T11:30:12;12.10;73.90
22666;DHT22;11499;49.486;11.104;2023-04-25T11:32:39;12.40;75.20
22666;DHT22;11499;49.486;11.104;2023-04-25T11:35:06;12.60;77.60
22666;DHT22;11499;49.486;11.104;2023-04-25T11:37:32;12.50;78.00
22666;DHT22;11499;49.486;11.104;2023-04-25T11:39:59;12.40;80.00
22666;DHT22;11499;49.486;11.104;2023-04-25T11:42:25;12.60;80.80
22666;DHT22;11499;49.486;11.104;2023-04-25T11:44:51;12.70;80.20
22666;DHT22;11499;49.486;11.104;2023-04-25T11:47:17;12.60;79.20
22666;DHT22;11499;49.486;11.104;2023-04-25T11:49:42;12.80;79.50
22666;DHT22;11499;49.486;11.104;2023-04-25T11:52:08;13.00;78.90
22666;DHT22;11499;49.486;11.104;2023-04-25T11:57:25;13.30;77.40
22666;DHT22;11499;49.486;11.104;2023-04-25T11:59:51;13.30;72.30
22666;DHT22;11499;49.486;11.104;2023-04-25T12:02:25;13.60;72.70
22666;DHT22;11499;49.486;11.104;2023-04-25T12:04:51;13.30;70.70
22666;DHT22;11499;49.486;11.104;2023-04-25T12:07:17;13.50;71.60
22666;DHT22;11499;49.486;11.104;2023-04-25T12:09:51;13.10;70.60
22666;DHT22;11499;49.486;11.104;2023-04-25T12:12:18;13.00;71.00
22666;DHT22;11499;49.486;11.104;2023-04-25T12:14:46;12.60;71.20
22666;DHT22;11499;49.486;11.104;2023-04-25T12:17:13;12.60;71.80
22666;DHT22;11499;49.486;11.104;2023-04-25T12:19:39;13.10;72.00
22666;DHT22;11499;49.486;11.104;2023-04-25T12:23:53;13.50;71.20
22666;DHT22;11499;49.486;11.104;2023-04-25T12:26:19;13.50;72.30
22666;DHT22;11499;49.486;11.104;2023-04-25T12:28:46;13.40;68.70
22666;DHT22;11499;49.486;11.104;2023-04-25T12:31:12;13.20;70.70
22666;DHT22;11499;49.486;11.104;2023-04-25T12:33:40;13.40;69.20
22666;DHT22;11499;49.486;11.104;2023-04-25T12:36:07;13.40;68.40
22666;DHT22;11499;49.486;11.104;2023-04-25T12:38:41;13.60;69.10
22666;DHT22;11499;49.486;11.104;2023-04-25T12:41:07;12.90;69.10
22666;DHT22;11499;49.486;11.104;2023-04-25T12:43:33;12.50;70.60
22666;DHT22;11499;49.486;11.104;2023-04-25T12:45:59;12.10;72.10
22666;DHT22;11499;49.486;11.104;2023-04-25T12:51:06;12.40;71.20
22666;DHT22;11499;49.486;11.104;2023-04-25T12:53:32;12.50;71.80
22666;DHT22;11499;49.486;11.104;2023-04-25T12:55:57;11.80;71.10
22666;DHT22;11499;49.486;11.104;2023-04-25T12:58:23;12.20;71.10
22666;DHT22;11499;49.486;11.104;2023-04-25T13:00:50;12.20;70.40
22666;DHT22;11499;49.486;11.104;2023-04-25T13:03:15;12.00;72.20
22666;DHT22;11499;49.486;11.104;2023-04-25T13:05:42;12.20;70.60
22666;DHT22;11499;49.486;11.104;2023-04-25T13:08:07;12.90;70.90
22666;DHT22;11499;49.486;11.104;2023-04-25T13:10:33;13.20;69.90
22666;DHT22;11499;49.486;11.104;2023-04-25T13:12:59;13.20;70.00
22666;DHT22;11499;49.486;11.104;2023-04-25T13:18:06;13.20;71.00
22666;DHT22;11499;49.486;11.104;2023-04-25T13:20:32;13.70;70.00
22666;DHT22;11499;49.486;11.104;2023-04-25T13:22:57;13.20;71.20
22666;DHT22;11499;49.486;11.104;2023-04-25T13:25:23;12.80;71.90
22666;DHT22;11499;49.486;11.104;2023-04-25T13:27:48;13.20;71.50
22666;DHT22;11499;49.486;11.104;2023-04-25T13:30:14;13.20;69.10
22666;DHT22;11499;49.486;11.104;2023-04-25T13:32:40;13.10;69.20
22666;DHT22;11499;49.486;11.104;2023-04-25T13:35:10;12.90;68.70
22666;DHT22;11499;49.486;11.104;2023-04-25T13:37:36;12.80;69.90
22666;DHT22;11499;49.486;11.104;2023-04-25T13:40:04;12.20;70.90
22666;DHT22;11499;49.486;11.104;2023-04-25T13:45:18;12.20;71.80
22666;DHT22;11499;49.486;11.104;2023-04-25T13:47:44;12.00;72.80
22666;DHT22;11499;49.486;11.104;2023-04-25T13:50:10;12.10;72.10
22666;DHT22;11499;49.486;11.104;2023-04-25T13:52:35;11.80;73.40
22666;DHT22;11499;49.486;11.104;2023-04-25T13:55:01;11.80;73.10
22666;DHT22;11499;49.486;11.104;2023-04-25T13:57:30;11.80;73.80
22666;DHT22;11499;49.486;11.104;2023-04-25T13:59:55;11.80;74.40
22666;DHT22;11499;49.486;11.104;2023-04-25T14:02:21;11.50;73.90
22666;DHT22;11499;49.486;11.104;2023-04-25T14:04:47;11.20;74.60
22666;DHT22;11499;49.486;11.104;2023-04-25T14:07:13;11.50;74.60
22666;DHT22;11499;49.486;11.104;2023-04-25T14:12:22;11.70;72.30
22666;DHT22;11499;49.486;11.104;2023-04-25T14:14:47;11.90;71.10
22666;DHT22;11499;49.486;11.104;2023-04-25T14:17:13;11.90;71.50
22666;DHT22;11499;49.486;11.104;2023-04-25T14:19:38;11.90;72.60
22666;DHT22;11499;49.486;11.104;2023-04-25T14:22:08;11.70;72.70
22666;DHT22;11499;49.486;11.104;2023-04-25T14:24:34;11.60;73.70
22666;DHT22;11499;49.486;11.104;2023-04-25T14:27:00;11.50;74.60
22666;DHT22;11499;49.486;11.104;2023-04-25T14:29:26;11.40;74.10
22666;DHT22;11499;49.486;11.104;2023-04-25T14:31:51;11.20;74.90
22666;DHT22;11499;49.486;11.104;2023-04-25T14:34:17;11.10;74.50
22666;DHT22;11499;49.486;11.104;2023-04-25T14:39:04;11.00;75.20
22666;DHT22;11499;49.486;11.104;2023-04-25T14:41:33;10.90;76.30
22666;DHT22;11499;49.486;11.104;2023-04-25T14:43:59;10.90;77.00
22666;DHT22;11499;49.486;11.104;2023-04-25T14:46:24;10.90;77.50
22666;DHT22;11499;49.486;11.104;2023-04-25T14:48:51;10.90;77.80
22666;DHT22;11499;49.486;11.104;2023-04-25T14:51:16;11.00;77.50
22666;DHT22;11499;49.486;11.104;2023-04-25T14:53:42;10.90;78.00
22666;DHT22;11499;49.486;11.104;2023-04-25T14:56:07;11.10;77.60
22666;DHT22;11499;49.486;11.104;2023-04-25T14:58:34;11.20;76.80
22666;DHT22;11499;49.486;11.104;2023-04-25T15:00:59;11.30;76.20
22666;DHT22;11499;49.486;11.104;2023-04-25T15:04:50;11.10;76.80
22666;DHT22;11499;49.486;11.104;2023-04-25T15:07:16;11.20;76.70
22666;DHT22;11499;49.486;11.104;2023-04-25T15:09:41;11.20;77.20
22666;DHT22;11499;49.486;11.104;2023-04-25T15:12:07;11.40;75.80
22666;DHT22;11499;49.486;11.104;2023-04-25T15:14:33;11.40;75.40
22666;DHT22;11499;49.486;11.104;2023-04-25T15:16:59;11.50;75.40
22666;DHT22;11499;49.486;11.104;2023-04-25T15:19:25;11.30;76.50
22666;DHT22;11499;49.486;11.104;2023-04-25T15:21:51;11.40;76.60
22666;DHT22;11499;49.486;11.104;2023-04-25T15:24:16;11.30;76.20
22666;DHT22;11499;49.486;11.104;2023-04-25T15:26:42;11.10;76.60
22666;DHT22;11499;49.486;11.104;2023-04-25T15:31:27;11.00;78.20
22666;DHT22;11499;49.486;11.104;2023-04-25T15:33:52;10.90;78.50
22666;DHT22;11499;49.486;11.104;2023-04-25T15:36:18;11.00;78.90
22666;DHT22;11499;49.486;11.104;2023-04-25T15:38:43;10.70;76.70
22666;DHT22;11499;49.486;11.104;2023-04-25T15:41:09;10.40;77.10
22666;DHT22;11499;49.486;11.104;2023-04-25T15:43:35;10.30;77.90
22666;DHT22;11499;49.486;11.104;2023-04-25T15:46:04;10.30;77.70
22666;DHT22;11499;49.486;11.104;2023-04-25T15:48:30;10.30;78.00
22666;DHT22;11499;49.486;11.104;2023-04-25T15:50:57;10.60;77.80
22666;DHT22;11499;49.486;11.104;2023-04-25T15:53:22;10.70;77.90
22666;DHT22;11499;49.486;11.104;2023-04-25T15:58:29;11.20;77.70
22666;DHT22;11499;49.486;11.104;2023-04-25T16:00:55;11.10;76.80
22666;DHT22;11499;49.486;11.104;2023-04-25T16:03:21;11.10;77.20
22666;DHT22;11499;49.486;11.104;2023-04-25T16:05:48;11.10;77.80
22666;DHT22;11499;49.486;11.104;2023-04-25T16:08:16;11.10;77.50
22666;DHT22;11499;49.486;11.104;2023-04-25T16:10:42;11.10;77.80
22666;DHT22;11499;49.486;11.104;2023-04-25T16:13:07;11.00;78.80
22666;DHT22;11499;49.486;11.104;2023-04-25T16:15:33;10.90;77.60
22666;DHT22;11499;49.486;11.104;2023-04-25T16:17:58;10.70;78.70
22666;DHT22;11499;49.486;11.104;2023-04-25T16:20:24;10.90;78.60
22666;DHT22;11499;49.486;11.104;2023-04-25T16:24:31;11.00;78.10
22666;DHT22;11499;49.486;11.104;2023-04-25T16:26:57;11.10;78.30
22666;DHT22;11499;49.486;11.104;2023-04-25T16:29:23;11.10;78.70
22666;DHT22;11499;49.486;11.104;2023-04-25T16:31:48;11.00;78.80
22666;DHT22;11499;49.486;11.104;2023-04-25T16:34:14;10.80;78.80
22666;DHT22;11499;49.486;11.104;2023-04-25T16:36:39;10.80;79.40
22666;DHT22;11499;49.486;11.104;2023-04-25T16:39:06;10.70;80.00
22666;DHT22;11499;49.486;11.104;2023-04-25T16:41:33;10.60;79.30
22666;DHT22;11499;49.486;11.104;2023-04-25T16:43:58;10.40;80.00
22666;DHT22;11499;49.486;11.104;2023-04-25T16:46:24;10.50;80.40
22666;DHT22;11499;49.486;11.104;2023-04-25T16:51:28;10.60;80.80
22666;DHT22;11499;49.486;11.104;2023-04-25T16:53:53;10.70;77.80
22666;DHT22;11499;49.486;11.104;2023-04-25T16:56:20;10.80;78.00
22666;DHT22;11499;49.486;11.104;2023-04-25T16:58:47;10.90;77.70